Time;durP1;ratioP1;P1;durP2;ratioP2;P2;SDS_P1;SDS_P2;PMS_P1;PMS_P2;Temp;Humidity;BMP_temperature;BMP_pressure;BME280_temperature;BME280_humidity;BME280_pressure;Samples;Min_cycle;Max_cycle;Signal;HPM_P1;HPM_P2
2022/07/27 00:00:10;;;;;;;7.83;5.93;;;;;;;;;;4994719;28;20625;-42
2022/07/27 00:02:36;;;;;;;6.97;5.83;;;;;;;;;;4995081;28;20494;-42
2022/07/27 00:05:03;;;;;;;8.53;6.40;;;;;;;;;;4998203;28;20654;-42
2022/07/27 00:07:29;;;;;;;8.17;5.70;;;;;;;;;;4997343;28;20174;-42
2022/07/27 00:09:55;;;;;;;8.77;6.30;;;;;;;;;;4996632;28;20466;-42
2022/07/27 00:12:21;;;;;;;9.00;6.10;;;;;;;;;;4999332;28;20250;-44
2022/07/27 00:14:47;;;;;;;10.47;6.53;;;;;;;;;;5001583;28;20179;-42
2022/07/27 00:17:13;;;;;;;8.83;6.93;;;;;;;;;;4996836;28;20211;-42
2022/07/27 00:19:39;;;;;;;8.60;6.97;;;;;;;;;;5026920;28;20420;-42
2022/07/27 00:22:05;;;;;;;8.87;7.10;;;;;;;;;;4998402;28;20203;-42
2022/07/27 00:24:31;;;;;;;9.97;7.10;;;;;;;;;;5000881;28;20177;-42
2022/07/27 00:26:58;;;;;;;9.90;7.40;;;;;;;;;;4996342;28;20692;-42
2022/07/27 00:29:24;;;;;;;9.00;6.87;;;;;;;;;;4995808;28;20600;-42
2022/07/27 00:31:50;;;;;;;11.57;7.30;;;;;;;;;;5030740;28;20365;-42
2022/07/27 00:34:16;;;;;;;8.43;6.70;;;;;;;;;;4998635;28;20181;-41
2022/07/27 00:36:42;;;;;;;8.77;6.30;;;;;;;;;;4996168;28;20176;-42
2022/07/27 00:39:08;;;;;;;8.40;6.07;;;;;;;;;;4996180;28;20344;-42
2022/07/27 00:41:34;;;;;;;6.87;5.33;;;;;;;;;;4998971;28;20547;-42
2022/07/27 00:44:00;;;;;;;9.77;5.87;;;;;;;;;;4999811;28;20719;-42
2022/07/27 00:46:27;;;;;;;19.63;5.10;;;;;;;;;;4996630;28;20193;-42
2022/07/27 00:48:53;;;;;;;18.63;4.63;;;;;;;;;;4995876;28;20734;-42
2022/07/27 00:51:21;;;;;;;34.20;5.87;;;;;;;;;;4998508;28;20554;-41
2022/07/27 00:53:47;;;;;;;348.77;22.00;;;;;;;;;;4999089;28;20184;-41
2022/07/27 00:56:13;;;;;;;63.77;7.80;;;;;;;;;;4996493;28;20226;-41
2022/07/27 00:58:39;;;;;;;34.67;6.50;;;;;;;;;;4998109;28;20739;-40
2022/07/27 01:01:06;;;;;;;16.27;5.93;;;;;;;;;;4999022;28;20181;-40
2022/07/27 01:03:32;;;;;;;15.90;6.93;;;;;;;;;;5001364;28;20188;-37
2022/07/27 01:05:58;;;;;;;12.80;6.43;;;;;;;;;;4998535;28;20742;-42
2022/07/27 01:08:24;;;;;;;15.97;7.20;;;;;;;;;;5003408;28;20208;-39
2022/07/27 01:10:51;;;;;;;13.60;6.87;;;;;;;;;;5000594;28;20181;-39
2022/07/27 01:13:18;;;;;;;13.73;6.53;;;;;;;;;;5002414;28;21068;-42
2022/07/27 01:15:44;;;;;;;9.90;6.07;;;;;;;;;;4999597;28;21059;-39
2022/07/27 01:18:10;;;;;;;7.33;5.50;;;;;;;;;;4995244;28;20176;-38
2022/07/27 01:20:37;;;;;;;7.53;5.10;;;;;;;;;;5001545;28;20964;-38
2022/07/27 01:23:03;;;;;;;10.53;5.23;;;;;;;;;;5001732;28;21055;-42
2022/07/27 01:25:29;;;;;;;9.17;5.67;;;;;;;;;;4998911;28;20259;-38
2022/07/27 01:27:55;;;;;;;8.53;5.70;;;;;;;;;;5000853;28;20197;-36
2022/07/27 01:30:30;;;;;;;10.03;5.97;;;;;;;;;;5001067;28;20937;-40
2022/07/27 01:33:00;;;;;;;7.70;5.50;;;;;;;;;;4999011;28;20606;-38
2022/07/27 01:35:26;;;;;;;8.23;5.83;;;;;;;;;;5002184;28;20724;-37
2022/07/27 01:37:52;;;;;;;9.70;5.90;;;;;;;;;;5000160;28;20392;-40
2022/07/27 01:40:19;;;;;;;7.57;5.73;;;;;;;;;;5000326;28;20639;-40
2022/07/27 01:42:45;;;;;;;10.80;5.73;;;;;;;;;;5002137;28;20661;-40
2022/07/27 01:45:11;;;;;;;5.83;5.30;;;;;;;;;;5000136;28;20176;-41
2022/07/27 01:47:37;;;;;;;8.00;6.03;;;;;;;;;;5001577;28;21109;-43
2022/07/27 01:50:03;;;;;;;8.97;6.27;;;;;;;;;;4997980;28;20673;-45
2022/07/27 01:52:30;;;;;;;6.30;5.60;;;;;;;;;;4997924;28;20289;-41
2022/07/27 01:54:56;;;;;;;6.93;5.40;;;;;;;;;;5001458;28;20484;-40
2022/07/27 01:57:22;;;;;;;7.10;5.90;;;;;;;;;;4998504;28;20538;-41
2022/07/27 01:59:48;;;;;;;8.60;5.80;;;;;;;;;;4997102;28;20490;-41
2022/07/27 02:02:15;;;;;;;8.07;6.07;;;;;;;;;;4998596;28;20193;-41
2022/07/27 02:04:41;;;;;;;10.60;5.77;;;;;;;;;;4999829;28;20417;-41
2022/07/27 02:07:08;;;;;;;15.73;6.00;;;;;;;;;;4996488;28;20177;-40
2022/07/27 02:09:34;;;;;;;7.47;5.33;;;;;;;;;;4998180;28;20205;-40
2022/07/27 02:14:45;;;;;;;9.23;5.80;;;;;;;;;;4997417;28;20670;-40
2022/07/27 02:17:11;;;;;;;8.40;5.60;;;;;;;;;;4997438;28;20185;-40
2022/07/27 02:19:37;;;;;;;7.07;5.37;;;;;;;;;;4996091;28;20967;-40
2022/07/27 02:22:03;;;;;;;8.77;5.87;;;;;;;;;;4998516;28;20522;-41
2022/07/27 02:24:29;;;;;;;7.83;5.20;;;;;;;;;;4995820;28;20274;-40
2022/07/27 02:26:55;;;;;;;10.73;6.67;;;;;;;;;;4993611;28;20211;-40
2022/07/27 02:29:21;;;;;;;7.30;5.57;;;;;;;;;;4997260;28;20519;-40
2022/07/27 02:31:47;;;;;;;6.73;5.70;;;;;;;;;;4999466;28;20179;-39
2022/07/27 02:34:13;;;;;;;7.27;5.97;;;;;;;;;;4997135;28;20176;-41
2022/07/27 02:36:39;;;;;;;9.60;6.90;;;;;;;;;;4997558;28;20267;-40
2022/07/27 02:39:05;;;;;;;7.73;6.23;;;;;;;;;;4996956;28;21123;-40
2022/07/27 02:41:31;;;;;;;7.83;6.33;;;;;;;;;;4995453;28;20491;-41
2022/07/27 02:43:57;;;;;;;9.37;6.23;;;;;;;;;;4996086;28;20617;-40
2022/07/27 02:46:24;;;;;;;7.37;6.30;;;;;;;;;;4998673;28;20193;-40
2022/07/27 02:48:50;;;;;;;8.43;6.50;;;;;;;;;;4996375;28;20273;-40
2022/07/27 02:51:16;;;;;;;7.83;6.43;;;;;;;;;;4997216;28;20176;-40
2022/07/27 02:53:42;;;;;;;9.10;7.00;;;;;;;;;;4999725;28;20391;-43
2022/07/27 02:56:08;;;;;;;9.87;7.03;;;;;;;;;;4997495;28;20177;-42
2022/07/27 02:58:34;;;;;;;9.77;6.93;;;;;;;;;;4994123;28;20878;-43
2022/07/27 03:01:00;;;;;;;8.67;6.60;;;;;;;;;;4997519;28;20190;-40
2022/07/27 03:03:27;;;;;;;10.43;7.30;;;;;;;;;;4997464;28;20506;-41
2022/07/27 03:05:53;;;;;;;9.07;7.80;;;;;;;;;;4996176;28;20381;-39
2022/07/27 03:08:19;;;;;;;9.97;8.17;;;;;;;;;;4996823;28;20200;-40
2022/07/27 03:10:45;;;;;;;8.57;7.70;;;;;;;;;;4997096;28;20189;-43
2022/07/27 03:13:11;;;;;;;13.03;8.97;;;;;;;;;;4995812;28;21186;-41
2022/07/27 03:15:37;;;;;;;11.47;8.47;;;;;;;;;;4998361;28;20169;-43
2022/07/27 03:18:03;;;;;;;11.63;9.47;;;;;;;;;;4997522;28;20720;-42
2022/07/27 03:20:29;;;;;;;12.63;9.00;;;;;;;;;;4999344;28;20185;-42
2022/07/27 03:22:56;;;;;;;13.20;8.30;;;;;;;;;;4995219;28;20259;-43
2022/07/27 03:25:22;;;;;;;12.20;8.43;;;;;;;;;;4996274;28;20243;-41
2022/07/27 03:27:48;;;;;;;8.43;7.20;;;;;;;;;;4998192;28;20177;-43
2022/07/27 03:30:14;;;;;;;11.40;7.40;;;;;;;;;;4999586;28;20261;-42
2022/07/27 03:32:40;;;;;;;9.00;6.73;;;;;;;;;;4995975;28;20355;-41
2022/07/27 03:35:06;;;;;;;8.47;5.63;;;;;;;;;;4996213;28;20185;-41
2022/07/27 03:37:33;;;;;;;8.80;6.00;;;;;;;;;;4999373;28;20802;-42
2022/07/27 03:39:59;;;;;;;9.07;6.63;;;;;;;;;;4998876;28;20953;-41
2022/07/27 03:42:25;;;;;;;7.97;6.67;;;;;;;;;;4992952;28;20507;-41
2022/07/27 03:44:51;;;;;;;9.07;7.20;;;;;;;;;;4996334;28;20254;-42
2022/07/27 03:47:18;;;;;;;11.97;7.87;;;;;;;;;;4997904;28;20465;-41
2022/07/27 03:49:44;;;;;;;10.07;7.27;;;;;;;;;;4995084;28;20242;-42
2022/07/27 03:52:10;;;;;;;11.77;7.13;;;;;;;;;;4997894;28;20322;-41
2022/07/27 03:54:36;;;;;;;10.97;7.90;;;;;;;;;;4993634;28;20196;-41
2022/07/27 03:57:02;;;;;;;10.53;8.87;;;;;;;;;;4997459;28;20423;-41
2022/07/27 03:59:28;;;;;;;9.87;8.07;;;;;;;;;;4997981;28;20277;-44
2022/07/27 04:01:54;;;;;;;13.37;7.77;;;;;;;;;;4993880;28;20187;-43
2022/07/27 04:04:20;;;;;;;11.43;7.23;;;;;;;;;;4995924;28;21064;-42
2022/07/27 04:06:46;;;;;;;13.40;8.80;;;;;;;;;;4996812;28;20234;-41
2022/07/27 04:09:15;;;;;;;11.47;8.10;;;;;;;;;;4995033;28;20427;-41
2022/07/27 04:11:42;;;;;;;11.50;8.10;;;;;;;;;;4996758;28;20214;-42
2022/07/27 04:14:08;;;;;;;17.70;9.73;;;;;;;;;;4996031;28;20702;-41
2022/07/27 04:16:34;;;;;;;11.90;7.87;;;;;;;;;;4995374;28;20277;-42
2022/07/27 04:19:00;;;;;;;11.57;7.20;;;;;;;;;;4993771;28;20763;-44
2022/07/27 04:21:26;;;;;;;10.47;7.07;;;;;;;;;;4995723;28;20194;-41
2022/07/27 04:23:53;;;;;;;12.50;6.67;;;;;;;;;;4998562;28;20184;-41
2022/07/27 04:26:19;;;;;;;15.13;6.67;;;;;;;;;;5025865;28;20293;-41
2022/07/27 04:28:45;;;;;;;11.27;6.50;;;;;;;;;;4995767;28;20204;-43
2022/07/27 04:31:11;;;;;;;14.87;6.63;;;;;;;;;;4997300;28;20180;-41
2022/07/27 04:33:37;;;;;;;7.57;5.53;;;;;;;;;;4994731;28;20401;-40
2022/07/27 04:36:04;;;;;;;7.63;6.07;;;;;;;;;;4996416;28;20246;-42
2022/07/27 04:38:30;;;;;;;11.63;6.70;;;;;;;;;;4998241;28;20192;-44
2022/07/27 04:40:56;;;;;;;7.30;5.60;;;;;;;;;;4996906;28;20267;-42
2022/07/27 04:43:22;;;;;;;7.10;6.10;;;;;;;;;;4992957;28;20732;-40
2022/07/27 04:45:48;;;;;;;6.70;6.00;;;;;;;;;;4992824;28;20180;-42
2022/07/27 04:48:14;;;;;;;7.87;6.67;;;;;;;;;;4996053;28;20662;-41
2022/07/27 04:50:41;;;;;;;7.60;6.40;;;;;;;;;;4996852;28;20179;-41
2022/07/27 04:53:07;;;;;;;9.83;7.17;;;;;;;;;;5006135;28;20195;-41
2022/07/27 04:55:33;;;;;;;8.33;6.80;;;;;;;;;;4995818;28;20612;-40
2022/07/27 04:57:59;;;;;;;7.73;6.40;;;;;;;;;;4998811;28;20192;-43
2022/07/27 05:00:25;;;;;;;7.20;6.27;;;;;;;;;;4996484;28;20192;-44
2022/07/27 05:02:51;;;;;;;8.57;5.93;;;;;;;;;;4997677;28;20187;-41
2022/07/27 05:05:18;;;;;;;8.60;6.30;;;;;;;;;;4998024;28;20188;-41
2022/07/27 05:07:44;;;;;;;7.33;6.03;;;;;;;;;;4997422;28;20527;-44
2022/07/27 05:10:10;;;;;;;8.40;6.40;;;;;;;;;;4992256;28;20207;-42
2022/07/27 05:12:37;;;;;;;8.03;6.30;;;;;;;;;;4996176;28;20180;-42
2022/07/27 05:15:04;;;;;;;12.07;7.27;;;;;;;;;;4996669;28;20191;-41
2022/07/27 05:17:30;;;;;;;13.20;9.33;;;;;;;;;;4995690;28;20222;-42
2022/07/27 05:19:56;;;;;;;11.20;8.97;;;;;;;;;;4990447;28;20211;-42
2022/07/27 05:22:22;;;;;;;11.17;8.33;;;;;;;;;;4986014;28;20801;-42
2022/07/27 05:24:48;;;;;;;11.70;8.87;;;;;;;;;;4993805;28;20176;-44
2022/07/27 05:27:15;;;;;;;11.10;8.33;;;;;;;;;;4994491;28;20186;-44
2022/07/27 05:29:44;;;;;;;11.63;9.63;;;;;;;;;;4994993;28;21559;-44
2022/07/27 05:32:10;;;;;;;11.23;8.40;;;;;;;;;;4999263;28;20184;-45
2022/07/27 05:34:36;;;;;;;10.43;8.40;;;;;;;;;;4999199;28;20172;-44
2022/07/27 05:37:02;;;;;;;12.67;9.50;;;;;;;;;;4995281;28;20176;-43
2022/07/27 05:39:28;;;;;;;11.57;8.33;;;;;;;;;;5029017;28;20287;-45
2022/07/27 05:41:54;;;;;;;12.00;8.30;;;;;;;;;;5004953;28;20661;-43
2022/07/27 05:44:20;;;;;;;8.87;7.60;;;;;;;;;;5011939;28;20604;-42
2022/07/27 05:46:46;;;;;;;8.97;7.17;;;;;;;;;;5003530;28;20181;-40
2022/07/27 05:49:13;;;;;;;9.80;6.77;;;;;;;;;;5004601;28;20208;-44
2022/07/27 05:51:39;;;;;;;10.10;6.83;;;;;;;;;;5009655;28;20177;-44
2022/07/27 05:54:05;;;;;;;6.50;5.77;;;;;;;;;;5007968;28;20623;-42
2022/07/27 05:56:31;;;;;;;7.80;6.90;;;;;;;;;;5010300;28;20179;-45
2022/07/27 05:58:57;;;;;;;7.77;6.97;;;;;;;;;;5010574;28;20883;-42
2022/07/27 06:01:23;;;;;;;9.83;7.30;;;;;;;;;;5008643;28;20225;-42
2022/07/27 06:03:49;;;;;;;9.87;6.30;;;;;;;;;;5010518;28;20967;-42
2022/07/27 06:09:00;;;;;;;8.03;5.97;;;;;;;;;;5010517;28;20529;-42
2022/07/27 06:11:26;;;;;;;9.67;6.07;;;;;;;;;;5010464;28;20255;-42
2022/07/27 06:13:52;;;;;;;10.27;6.40;;;;;;;;;;5007822;28;20270;-42
2022/07/27 06:16:18;;;;;;;9.23;6.00;;;;;;;;;;5007924;28;20474;-42
2022/07/27 06:18:44;;;;;;;8.27;5.80;;;;;;;;;;5006435;28;20789;-42
2022/07/27 06:21:10;;;;;;;6.93;5.90;;;;;;;;;;5009145;28;20901;-42
2022/07/27 06:23:36;;;;;;;5.30;4.80;;;;;;;;;;5012092;28;20176;-42
2022/07/27 06:26:03;;;;;;;6.47;5.30;;;;;;;;;;5010784;28;20184;-42
2022/07/27 06:28:29;;;;;;;7.57;5.60;;;;;;;;;;5007711;28;20782;-42
2022/07/27 06:30:55;;;;;;;5.53;4.83;;;;;;;;;;5012748;28;20420;-42
2022/07/27 06:33:28;;;;;;;5.63;4.60;;;;;;;;;;5007196;28;20283;-43
2022/07/27 06:35:54;;;;;;;6.70;4.80;;;;;;;;;;5010450;28;20355;-42
2022/07/27 06:38:21;;;;;;;6.00;4.50;;;;;;;;;;5011452;28;20526;-42
2022/07/27 06:40:51;;;;;;;4.87;4.07;;;;;;;;;;5006515;28;20594;-42
2022/07/27 06:43:18;;;;;;;5.27;4.20;;;;;;;;;;5005843;28;20512;-45
2022/07/27 06:45:45;;;;;;;6.43;5.07;;;;;;;;;;5011785;28;20214;-42
2022/07/27 06:48:11;;;;;;;5.00;4.03;;;;;;;;;;5005954;28;20236;-42
2022/07/27 06:50:37;;;;;;;4.87;3.77;;;;;;;;;;5005334;28;20180;-45
2022/07/27 06:53:03;;;;;;;5.97;4.40;;;;;;;;;;5006106;28;20568;-42
2022/07/27 06:55:29;;;;;;;7.10;4.50;;;;;;;;;;5003998;28;20343;-42
2022/07/27 06:57:55;;;;;;;4.50;4.10;;;;;;;;;;4998109;28;20720;-42
2022/07/27 07:00:21;;;;;;;4.73;4.10;;;;;;;;;;4997322;28;20574;-42
2022/07/27 07:02:58;;;;;;;6.07;4.03;;;;;;;;;;5000764;28;20183;-41
2022/07/27 07:05:24;;;;;;;5.67;4.10;;;;;;;;;;5001259;28;20355;-42
2022/07/27 07:07:50;;;;;;;6.17;4.73;;;;;;;;;;5007103;28;20172;-42
2022/07/27 07:10:16;;;;;;;6.33;4.23;;;;;;;;;;5008610;28;20176;-44
2022/07/27 07:12:42;;;;;;;5.93;3.90;;;;;;;;;;5009296;28;20176;-44
2022/07/27 07:15:09;;;;;;;6.23;3.60;;;;;;;;;;5007148;28;20176;-44
2022/07/27 07:17:35;;;;;;;7.80;4.47;;;;;;;;;;5005372;28;20628;-45
2022/07/27 07:20:02;;;;;;;5.30;4.10;;;;;;;;;;5008581;28;20280;-44
2022/07/27 07:22:28;;;;;;;6.17;4.47;;;;;;;;;;5011266;28;20180;-45
2022/07/27 07:24:54;;;;;;;9.73;4.50;;;;;;;;;;5005633;28;20658;-44
2022/07/27 07:27:22;;;;;;;4.97;4.47;;;;;;;;;;5007406;28;20165;-44
2022/07/27 07:29:51;;;;;;;7.67;4.30;;;;;;;;;;5009050;28;20398;-45
2022/07/27 07:32:21;;;;;;;4.87;4.23;;;;;;;;;;5006931;28;20176;-43
2022/07/27 07:34:48;;;;;;;5.93;4.10;;;;;;;;;;5005455;28;20203;-44
2022/07/27 07:37:14;;;;;;;8.00;4.90;;;;;;;;;;5006778;28;20176;-45
2022/07/27 07:39:40;;;;;;;7.73;4.90;;;;;;;;;;5005051;28;20192;-43
2022/07/27 07:42:06;;;;;;;7.20;4.43;;;;;;;;;;5001178;28;20169;-43
2022/07/27 07:44:33;;;;;;;4.30;3.90;;;;;;;;;;4998856;28;21022;-43
2022/07/27 07:46:59;;;;;;;4.97;4.20;;;;;;;;;;5003399;28;20553;-43
2022/07/27 07:49:25;;;;;;;8.90;4.73;;;;;;;;;;4998877;28;21090;-42
2022/07/27 07:51:51;;;;;;;5.33;4.77;;;;;;;;;;4991371;28;20489;-43
2022/07/27 07:54:17;;;;;;;6.17;4.30;;;;;;;;;;4995092;28;20620;-43
2022/07/27 07:56:43;;;;;;;7.03;4.43;;;;;;;;;;4991667;28;20172;-42
2022/07/27 07:59:10;;;;;;;5.37;4.60;;;;;;;;;;4990968;28;20188;-43
2022/07/27 08:01:36;;;;;;;5.00;4.40;;;;;;;;;;4993389;28;20177;-43
2022/07/27 08:04:02;;;;;;;6.53;5.20;;;;;;;;;;4997643;28;20708;-43
2022/07/27 08:06:28;;;;;;;5.20;4.70;;;;;;;;;;4995444;28;20180;-43
2022/07/27 08:08:54;;;;;;;5.33;4.83;;;;;;;;;;4995425;28;22322;-43
2022/07/27 08:11:20;;;;;;;6.70;5.00;;;;;;;;;;5000920;28;20185;-43
2022/07/27 08:13:47;;;;;;;5.83;4.27;;;;;;;;;;4999413;28;20720;-43
2022/07/27 08:16:13;;;;;;;9.27;6.00;;;;;;;;;;4997245;28;20258;-43
2022/07/27 08:18:39;;;;;;;7.57;5.87;;;;;;;;;;5004706;28;20185;-45
2022/07/27 08:21:05;;;;;;;4.77;4.27;;;;;;;;;;5005501;28;20431;-43
2022/07/27 08:23:32;;;;;;;6.03;4.10;;;;;;;;;;4999294;28;20185;-43
2022/07/27 08:25:58;;;;;;;5.83;4.60;;;;;;;;;;4995140;28;20299;-43
2022/07/27 08:28:24;;;;;;;8.57;5.03;;;;;;;;;;4998776;28;20611;-43
2022/07/27 08:30:50;;;;;;;5.87;4.93;;;;;;;;;;4999275;28;20184;-45
2022/07/27 08:33:16;;;;;;;5.93;4.90;;;;;;;;;;4999144;28;20199;-43
2022/07/27 08:35:44;;;;;;;8.40;4.37;;;;;;;;;;5001337;28;20187;-45
2022/07/27 08:38:10;;;;;;;6.50;5.00;;;;;;;;;;5004692;28;20760;-43
2022/07/27 08:40:37;;;;;;;4.33;3.70;;;;;;;;;;5006657;28;20188;-43
2022/07/27 08:43:04;;;;;;;4.43;3.80;;;;;;;;;;5000630;28;20180;-43
2022/07/27 08:45:30;;;;;;;3.87;2.90;;;;;;;;;;5003519;28;20522;-43
2022/07/27 08:47:56;;;;;;;5.67;3.43;;;;;;;;;;5004022;28;20182;-43
2022/07/27 08:50:23;;;;;;;4.30;3.90;;;;;;;;;;5006244;28;20284;-43
2022/07/27 08:52:50;;;;;;;6.10;4.77;;;;;;;;;;5002470;28;20301;-44
2022/07/27 08:55:17;;;;;;;5.37;3.80;;;;;;;;;;5004518;28;20579;-43
2022/07/27 08:57:43;;;;;;;6.00;4.93;;;;;;;;;;5009120;28;20595;-43
2022/07/27 09:00:11;;;;;;;8.13;5.17;;;;;;;;;;4995281;28;21299;-41
2022/07/27 09:02:39;;;;;;;8.13;6.23;;;;;;;;;;4994865;28;20480;-43
2022/07/27 09:05:05;;;;;;;6.07;5.40;;;;;;;;;;4993897;28;20183;-43
2022/07/27 09:07:32;;;;;;;6.13;5.53;;;;;;;;;;4994318;28;20531;-43
2022/07/27 09:09:58;;;;;;;10.93;5.40;;;;;;;;;;4997910;28;20212;-43
2022/07/27 09:12:28;;;;;;;5.30;4.80;;;;;;;;;;5001771;28;20585;-43
2022/07/27 09:15:07;;;;;;;7.23;4.57;;;;;;;;;;5002609;28;20614;-43
2022/07/27 09:17:33;;;;;;;9.13;4.90;;;;;;;;;;5006058;28;20176;-43
2022/07/27 09:20:00;;;;;;;5.97;3.87;;;;;;;;;;4995975;28;21606;-42
2022/07/27 09:22:39;;;;;;;5.70;4.63;;;;;;;;;;4997916;28;20180;-44
2022/07/27 09:25:06;;;;;;;5.13;4.27;;;;;;;;;;4999938;28;20254;-43
2022/07/27 09:27:32;;;;;;;5.07;4.40;;;;;;;;;;4997336;28;20524;-43
2022/07/27 09:30:18;;;;;;;4.30;3.90;;;;;;;;;;5000686;28;20700;-43
2022/07/27 09:32:54;;;;;;;6.17;4.40;;;;;;;;;;5007819;28;20926;-43
2022/07/27 09:35:24;;;;;;;6.80;5.13;;;;;;;;;;5042943;28;20511;-43
2022/07/27 09:37:51;;;;;;;6.90;6.20;;;;;;;;;;5007685;28;20673;-43
2022/07/27 09:40:22;;;;;;;7.80;6.20;;;;;;;;;;5009753;28;20181;-42
2022/07/27 09:42:48;;;;;;;7.90;6.63;;;;;;;;;;5011355;28;20245;-42
2022/07/27 09:45:28;;;;;;;6.67;5.80;;;;;;;;;;5008208;28;20181;-44
2022/07/27 09:48:05;;;;;;;7.93;5.63;;;;;;;;;;5038237;28;20181;-42
2022/07/27 09:50:31;;;;;;;6.63;5.40;;;;;;;;;;5011843;28;20470;-45
2022/07/27 09:53:11;;;;;;;9.70;6.93;;;;;;;;;;5010085;28;20209;-42
2022/07/27 09:55:38;;;;;;;7.63;6.47;;;;;;;;;;5008032;28;20271;-45
2022/07/27 09:58:04;;;;;;;6.47;5.73;;;;;;;;;;5012026;28;20535;-42
2022/07/27 10:00:30;;;;;;;8.10;5.57;;;;;;;;;;5000758;28;20517;-42
2022/07/27 10:02:56;;;;;;;6.30;5.67;;;;;;;;;;5000516;28;20169;-43
2022/07/27 10:05:23;;;;;;;6.27;5.50;;;;;;;;;;5001108;28;20186;-42
2022/07/27 10:07:50;;;;;;;5.37;4.87;;;;;;;;;;4995217;28;20601;-43
2022/07/27 10:10:17;;;;;;;7.03;6.17;;;;;;;;;;5003413;28;20747;-43
2022/07/27 10:12:43;;;;;;;8.60;5.97;;;;;;;;;;5006995;28;20221;-43
2022/07/27 10:15:12;;;;;;;6.77;6.03;;;;;;;;;;5010830;28;20607;-43
2022/07/27 10:17:41;;;;;;;7.47;6.73;;;;;;;;;;5007653;28;20185;-43
2022/07/27 10:20:08;;;;;;;11.03;8.20;;;;;;;;;;5007250;28;20260;-42
2022/07/27 10:22:49;;;;;;;9.37;7.50;;;;;;;;;;5007192;28;20446;-43
2022/07/27 10:25:15;;;;;;;7.80;7.00;;;;;;;;;;5010103;28;20446;-43
2022/07/27 10:27:41;;;;;;;8.13;7.33;;;;;;;;;;5008170;28;21128;-43
2022/07/27 10:30:08;;;;;;;9.33;8.43;;;;;;;;;;5009502;28;20203;-43
2022/07/27 10:32:35;;;;;;;9.90;8.03;;;;;;;;;;5006192;28;20472;-42
2022/07/27 10:35:02;;;;;;;11.70;9.53;;;;;;;;;;4994969;28;20172;-45
2022/07/27 10:37:29;;;;;;;8.40;7.10;;;;;;;;;;4998241;28;20680;-42
2022/07/27 10:42:42;;;;;;;8.73;7.83;;;;;;;;;;4997630;28;20337;-42
2022/07/27 10:45:10;;;;;;;7.77;6.53;;;;;;;;;;5006431;28;20446;-42
2022/07/27 10:47:50;;;;;;;6.90;5.60;;;;;;;;;;5000138;28;20180;-42
2022/07/27 10:50:16;;;;;;;6.67;5.90;;;;;;;;;;5000900;28;20200;-43
2022/07/27 10:52:42;;;;;;;8.20;6.00;;;;;;;;;;4999287;28;20184;-43
2022/07/27 10:55:08;;;;;;;5.60;4.63;;;;;;;;;;5000362;28;20561;-43
2022/07/27 10:57:37;;;;;;;6.80;5.30;;;;;;;;;;5001139;28;20642;-43
2022/07/27 11:00:06;;;;;;;7.73;6.93;;;;;;;;;;4997503;28;20414;-43
2022/07/27 11:02:40;;;;;;;6.10;5.50;;;;;;;;;;4997360;28;20212;-43
2022/07/27 11:05:07;;;;;;;8.53;6.10;;;;;;;;;;5002360;28;20204;-43
2022/07/27 11:07:33;;;;;;;7.57;6.60;;;;;;;;;;4997496;28;20686;-43
2022/07/27 11:10:00;;;;;;;7.33;5.70;;;;;;;;;;4995118;28;20207;-43
2022/07/27 11:12:29;;;;;;;7.70;5.23;;;;;;;;;;5001483;28;20180;-43
2022/07/27 11:14:57;;;;;;;7.67;5.40;;;;;;;;;;5010715;28;21290;-43
2022/07/27 11:17:25;;;;;;;8.80;6.17;;;;;;;;;;5003462;28;20802;-42
2022/07/27 11:19:52;;;;;;;7.03;5.00;;;;;;;;;;5007260;28;20176;-43
2022/07/27 11:22:28;;;;;;;9.03;3.90;;;;;;;;;;5007290;28;20397;-42
2022/07/27 11:24:54;;;;;;;6.67;4.73;;;;;;;;;;5003335;28;20395;-42
2022/07/27 11:27:20;;;;;;;5.13;4.60;;;;;;;;;;5004155;28;20239;-42
2022/07/27 11:29:46;;;;;;;4.93;4.27;;;;;;;;;;5000780;28;20208;-43
2022/07/27 11:32:17;;;;;;;4.47;3.87;;;;;;;;;;4996254;28;20242;-43
2022/07/27 11:34:43;;;;;;;4.60;4.20;;;;;;;;;;4995332;28;20173;-43
2022/07/27 11:37:18;;;;;;;5.87;4.60;;;;;;;;;;4997840;28;20591;-43
2022/07/27 11:39:44;;;;;;;6.20;4.10;;;;;;;;;;4995594;28;20301;-43
2022/07/27 11:42:10;;;;;;;6.67;3.80;;;;;;;;;;5005470;28;20168;-43
2022/07/27 11:44:37;;;;;;;6.33;4.67;;;;;;;;;;5006695;28;20295;-43
2022/07/27 11:47:04;;;;;;;5.60;4.03;;;;;;;;;;5006668;28;20910;-43
2022/07/27 11:49:31;;;;;;;5.20;4.70;;;;;;;;;;5003891;28;21052;-43
2022/07/27 11:51:59;;;;;;;5.30;4.40;;;;;;;;;;5006464;28;20850;-43
2022/07/27 11:54:25;;;;;;;4.67;4.03;;;;;;;;;;5007551;28;20192;-43
2022/07/27 11:57:02;;;;;;;4.23;3.73;;;;;;;;;;5002899;28;20576;-43
2022/07/27 11:59:29;;;;;;;7.00;4.37;;;;;;;;;;5004178;28;20670;-43
2022/07/27 12:02:00;;;;;;;5.90;4.17;;;;;;;;;;5003998;28;20192;-43
2022/07/27 12:04:27;;;;;;;4.60;4.10;;;;;;;;;;5006107;28;20278;-43
2022/07/27 12:07:06;;;;;;;6.20;3.93;;;;;;;;;;5005004;28;20949;-43
2022/07/27 12:09:35;;;;;;;7.53;4.17;;;;;;;;;;5005784;28;20258;-43
2022/07/27 12:12:08;;;;;;;6.23;4.80;;;;;;;;;;5005588;28;20200;-43
2022/07/27 12:14:45;;;;;;;6.43;4.30;;;;;;;;;;5006055;28;20181;-43
2022/07/27 12:17:11;;;;;;;5.77;4.10;;;;;;;;;;4996897;28;20292;-42
2022/07/27 12:19:38;;;;;;;4.27;3.83;;;;;;;;;;4995759;28;20184;-42
2022/07/27 12:22:04;;;;;;;6.63;3.97;;;;;;;;;;4996788;28;20279;-42
2022/07/27 12:24:33;;;;;;;5.53;3.90;;;;;;;;;;4999646;28;20520;-42
2022/07/27 12:27:03;;;;;;;7.43;4.97;;;;;;;;;;5001210;28;20180;-44
2022/07/27 12:29:30;;;;;;;7.20;4.43;;;;;;;;;;5003733;28;20239;-42
2022/07/27 12:32:00;;;;;;;5.70;3.77;;;;;;;;;;5003565;28;20168;-42
2022/07/27 12:34:31;;;;;;;7.43;4.40;;;;;;;;;;5007035;28;20835;-42
2022/07/27 12:36:57;;;;;;;5.50;4.23;;;;;;;;;;5004061;28;20181;-42
2022/07/27 12:39:27;;;;;;;5.37;3.93;;;;;;;;;;5002775;28;20612;-42
2022/07/27 12:42:06;;;;;;;5.33;4.10;;;;;;;;;;5007977;28;20501;-42
2022/07/27 12:44:37;;;;;;;5.27;4.20;;;;;;;;;;5005308;28;20180;-42
2022/07/27 12:47:39;;;;;;;6.23;4.13;;;;;;;;;;5005635;28;20180;-42
2022/07/27 12:50:02;;;;;;;7.40;4.23;;;;;;;;;;5006775;28;20204;-42
2022/07/27 12:52:28;;;;;;;4.60;4.10;;;;;;;;;;5006718;28;20374;-42
2022/07/27 12:54:55;;;;;;;6.03;4.27;;;;;;;;;;5003989;28;20173;-44
2022/07/27 12:57:21;;;;;;;7.87;4.97;;;;;;;;;;5002599;28;20200;-42
2022/07/27 12:59:47;;;;;;;6.53;4.30;;;;;;;;;;5001537;28;20184;-42
2022/07/27 13:02:13;;;;;;;7.47;4.13;;;;;;;;;;4998605;28;20254;-42
2022/07/27 13:04:39;;;;;;;4.87;4.20;;;;;;;;;;4994746;28;20926;-42
2022/07/27 13:07:05;;;;;;;6.27;4.27;;;;;;;;;;4997760;28;20176;-42
2022/07/27 13:09:34;;;;;;;5.13;4.07;;;;;;;;;;4999829;28;20253;-42
2022/07/27 13:12:00;;;;;;;6.20;4.10;;;;;;;;;;5005718;28;20157;-43
2022/07/27 13:14:26;;;;;;;5.07;3.93;;;;;;;;;;4989981;28;20188;-43
2022/07/27 13:16:52;;;;;;;4.73;4.03;;;;;;;;;;5000345;28;20691;-44
2022/07/27 13:19:18;;;;;;;6.53;4.23;;;;;;;;;;4996673;28;20613;-43
2022/07/27 13:21:44;;;;;;;4.93;3.97;;;;;;;;;;4996301;28;20178;-43
2022/07/27 13:24:10;;;;;;;6.30;4.30;;;;;;;;;;4996238;28;20183;-43
2022/07/27 13:26:38;;;;;;;4.50;4.03;;;;;;;;;;4994864;28;20185;-43
2022/07/27 13:29:04;;;;;;;6.20;4.50;;;;;;;;;;4993502;28;20612;-43
2022/07/27 13:31:30;;;;;;;5.50;4.13;;;;;;;;;;4996197;28;20758;-42
2022/07/27 13:33:56;;;;;;;6.03;4.03;;;;;;;;;;4996122;28;20166;-42
2022/07/27 13:36:22;;;;;;;8.50;4.20;;;;;;;;;;4990767;28;20443;-42
2022/07/27 13:38:49;;;;;;;4.57;3.97;;;;;;;;;;4993898;28;20428;-42
2022/07/27 13:41:15;;;;;;;8.67;4.00;;;;;;;;;;4992753;28;20176;-41
2022/07/27 13:43:41;;;;;;;5.70;3.70;;;;;;;;;;4991206;28;20188;-42
2022/07/27 13:46:09;;;;;;;5.47;3.80;;;;;;;;;;4989996;28;20207;-42
2022/07/27 13:48:35;;;;;;;5.37;4.17;;;;;;;;;;4994057;28;20201;-43
2022/07/27 13:51:02;;;;;;;6.30;3.90;;;;;;;;;;4991343;28;20273;-43
2022/07/27 13:53:28;;;;;;;5.10;3.90;;;;;;;;;;4991317;28;20195;-42
2022/07/27 13:55:58;;;;;;;5.53;3.77;;;;;;;;;;4991689;28;20527;-42
2022/07/27 13:58:24;;;;;;;6.60;4.13;;;;;;;;;;4993379;28;20737;-42
2022/07/27 14:00:50;;;;;;;6.60;3.90;;;;;;;;;;4989727;28;20181;-43
2022/07/27 14:03:16;;;;;;;5.77;4.33;;;;;;;;;;5019631;28;20169;-42
2022/07/27 14:05:42;;;;;;;4.93;3.67;;;;;;;;;;4995616;28;20387;-42
2022/07/27 14:08:08;;;;;;;5.53;3.83;;;;;;;;;;5005663;28;20547;-42
2022/07/27 14:10:38;;;;;;;5.47;3.97;;;;;;;;;;5009885;28;20199;-42
2022/07/27 14:13:06;;;;;;;6.03;3.73;;;;;;;;;;5009700;28;20489;-42
2022/07/27 14:15:33;;;;;;;5.30;3.80;;;;;;;;;;4996280;28;20173;-42
2022/07/27 14:17:59;;;;;;;6.07;3.70;;;;;;;;;;4998999;28;20884;-42
2022/07/27 14:20:25;;;;;;;4.07;3.50;;;;;;;;;;5000675;28;20584;-42
2022/07/27 14:22:51;;;;;;;5.87;3.67;;;;;;;;;;5000223;28;20184;-42
2022/07/27 14:25:17;;;;;;;5.33;3.47;;;;;;;;;;5005862;28;20176;-42
2022/07/27 14:27:43;;;;;;;5.93;3.90;;;;;;;;;;5010191;28;20230;-42
2022/07/27 14:30:09;;;;;;;4.20;3.80;;;;;;;;;;5008187;28;20196;-42
2022/07/27 14:32:36;;;;;;;5.93;3.67;;;;;;;;;;5009402;28;20177;-42
2022/07/27 14:35:02;;;;;;;5.03;3.80;;;;;;;;;;5012278;28;20168;-42
2022/07/27 14:37:28;;;;;;;7.20;3.73;;;;;;;;;;5011879;28;20864;-42
2022/07/27 14:39:55;;;;;;;5.27;3.60;;;;;;;;;;5010701;28;20173;-42
2022/07/27 14:42:22;;;;;;;6.17;3.60;;;;;;;;;;5006063;28;20487;-42
2022/07/27 14:44:49;;;;;;;5.30;3.40;;;;;;;;;;5010136;28;20882;-42
2022/07/27 14:47:15;;;;;;;6.27;3.50;;;;;;;;;;5010151;28;20254;-42